Flight Track Log - Related Links

Times and Time Zones

All times are in EDT time to prevent confusion due to time zone crossing. See the EGF3681 flight status page for this flight to view local times or setup timezone preferences in your user account.

Time Position Orientation Groundspeed Altitude Reporting Facility
EDT Latitude Longitude Course Direction KTS MPH feet Rate Location/Type
Tue 10:49:45 PM 42.0167 -87.9333 95° East 194 223 2,100  Level Chicago TRACON
Tue 10:50:51 PM 42.0667 -87.8667 45° Northeast 252 290 4,500 2,132 Climbing Chicago TRACON
Tue 10:51:00 PM 41.9667 -87.6333 90° East  Level FlightAware Approximate
Tue 10:52:00 PM 41.9634 -87.5003 98° East  Level FlightAware Approximate
Tue 10:53:00 PM 41.9501 -87.3682 98° East  Level FlightAware Approximate
Tue 10:53:02 PM 42.1544 -87.6861 57° Northeast 300 345 9,100  Level Chicago Center
Tue 10:54:00 PM 41.9407 -87.2355 95° East  Level FlightAware Approximate
Tue 10:54:03 PM 42.1136 -87.5792 117° Southeast 319 367 11,100  Level Chicago Center
Tue 10:55:04 PM 42.0767 -87.4692 114° Southeast 323 372 13,000 1,672 Climbing Chicago Center
Tue 10:56:05 PM 42.0392 -87.3519 113° Southeast 339 390 14,500 1,131 Climbing Chicago Center
Tue 10:57:06 PM 41.9981 -87.2275 114° Southeast 362 417 15,300 885 Climbing Chicago Center
Tue 10:58:07 PM 41.9539 -87.0950 114° Southeast 385 443 16,300 984 Climbing Chicago Center
Tue 10:59:08 PM 41.9444 -86.9503 95° East 394 453 17,300 984 Climbing Chicago Center
Tue 11:00:09 PM 41.8975 -86.8169 115° Southeast 413 475 18,300 984 Climbing Chicago Center
Tue 11:01:10 PM 41.8253 -86.6956 129° Southeast 417 480 19,300 1,033 Climbing Chicago Center
Tue 11:02:11 PM 41.7456 -86.5528 127° Southeast 422 486 20,400 1,033 Climbing Chicago Center
Tue 11:03:12 PM 41.6753 -86.4250 126° Southeast 427 491 21,400 934 Climbing Chicago Center
Tue 11:04:13 PM 41.6031 -86.2969 127° Southeast 433 498 22,300 787 Climbing Chicago Center
Tue 11:05:14 PM 41.5311 -86.1708 127° Southeast 431 496 23,000 344 Climbing Chicago Center
Tue 11:06:15 PM 41.4572 -86.0400 127° Southeast 442 509 23,000  Level Chicago Center
Tue 11:07:16 PM 41.3800 -85.9033 127° Southeast 462 532 23,000  Level Chicago Center
Tue 11:08:17 PM 41.3019 -85.7669 127° Southeast 468 539 23,000  Level Chicago Center
Tue 11:09:18 PM 41.2233 -85.6289 127° Southeast 474 545 23,000  Level Chicago Center
Tue 11:10:18 PM 41.1433 -85.4903 127° Southeast 475 547 23,000 -446 Level Chicago Center
Tue 11:11:19 PM 41.0469 -85.3244 128° Southeast 478 550 22,100 -1,475 Descending Chicago Center
Tue 11:12:20 PM 40.9669 -85.1844 127° Southeast 481 554 20,000 -1,967 Descending Chicago Center
Tue 11:13:21 PM 40.8903 -85.0550 128° Southeast 461 531 18,100 -1,525 Descending Chicago Center
Tue 11:14:22 PM 40.8142 -84.9264 128° Southeast 449 517 16,900 -1,033 Descending Chicago Center
Tue 11:15:23 PM 40.7397 -84.7989 128° Southeast 444 511 16,000 -885 Descending Chicago Center
Tue 11:16:24 PM 40.6664 -84.6772 128° Southeast 431 496 15,100 -541 Descending Chicago Center
Tue 11:17:25 PM 40.5953 -84.5550 127° Southeast 425 489 14,900 -1,077 Descending Chicago Center
Tue 11:18:21 PM 40.5206 -84.4308 128° Southeast 422 486 13,000 -2,000 Descending Indianapolis Center
Tue 11:19:22 PM 40.4442 -84.3314 135° Southeast 391 450 11,000 -1,426 Descending Indianapolis Center
Tue 11:20:23 PM 40.3614 -84.2567 145° Southeast 325 374 10,100 -1,574 Descending Indianapolis Center
Tue 11:21:24 PM 40.2958 -84.1969 145° Southeast 309 356 7,800 -2,164 Descending Indianapolis Center
Tue 11:22:25 PM 40.2222 -84.1608 159° South 295 339 5,700 -1,826 Descending Indianapolis Center
Tue 11:23:19 PM 40.1539 -84.1289 160° South 274 315 4,300 -984 Descending Indianapolis Center
Tue 11:24:27 PM 40.0792 -84.1075 168° South 274 315 3,700 -614 Descending Indianapolis Center
Tue 11:25:26 PM 40.0006 -84.1044 178° South 221 254 3,000 -571 Descending Indianapolis Center
Tue 11:26:33 PM 39.9494 -84.1117 186° South 148 170 2,500 -435 Descending Indianapolis Center
Tue 11:27:30 PM 39.9333 -84.1422 235° Southwest 165 190 2,100 -513 Descending Indianapolis Center
Tue 11:28:30 PM 39.9139 -84.1769 234° Southwest 136 157 1,500 -347 Descending Indianapolis Center
Tue 11:29:31 PM 39.8947 -84.2128 235° Southwest 133 153 1,400 -98 Descending Indianapolis Center

Login

Don't have an account? Register now (free) for customized features, flight alerts, and more!